Time;durP1;ratioP1;P1;durP2;ratioP2;P2;SDS_P1;SDS_P2;PMS_P1;PMS_P2;Temp;Humidity;BMP_temperature;BMP_pressure;BME280_temperature;BME280_humidity;BME280_pressure;Samples;Min_cycle;Max_cycle;Signal;HPM_P1;HPM_P2
2021/12/16 00:05:51;;;;;;;33.77;18.53;;;;;;;7.77;100.00;101749.42;3313239;86;99779;-92
2021/12/16 00:10:42;;;;;;;32.45;18.95;;;;;;;7.75;100.00;101753.86;3309713;86;99048;-88
2021/12/16 00:31:48;;;;;;;33.03;17.53;;;;;;;7.68;100.00;101747.29;3338059;85;99112;-88
2021/12/16 00:36:39;;;;;;;31.57;16.77;;;;;;;7.63;100.00;101741.98;3335993;84;99184;-86
2021/12/16 00:41:43;;;;;;;33.33;18.17;;;;;;;7.64;100.00;101759.44;3313281;86;99460;-87
2021/12/16 00:57:11;;;;;;;33.45;18.45;;;;;;;7.63;100.00;101763.31;3350757;85;98967;-86
2021/12/16 01:02:28;;;;;;;32.33;17.13;;;;;;;7.60;100.00;101761.23;3349191;85;99077;-86
2021/12/16 01:07:51;;;;;;;31.30;16.03;;;;;;;7.58;100.00;101759.95;3369311;85;98996;-86
2021/12/16 01:33:56;;;;;;;35.20;16.43;;;;;;;7.38;100.00;101781.97;3352830;86;98978;-86
2021/12/16 01:59:45;;;;;;;31.67;16.43;;;;;;;7.23;100.00;101755.61;3344842;85;99152;-85
2021/12/16 02:05:12;;;;;;;35.83;16.97;;;;;;;7.20;100.00;101763.12;3348176;85;33304;-86
2021/12/16 02:09:48;;;;;;;32.20;16.60;;;;;;;7.21;100.00;101768.25;3342825;85;99205;-85
2021/12/16 02:31:20;;;;;;;32.87;16.33;;;;;;;7.24;100.00;101751.19;3366553;85;99104;-86
2021/12/16 02:36:24;;;;;;;32.90;16.60;;;;;;;7.27;100.00;101750.56;3346948;85;99504;-86
2021/12/16 02:41:18;;;;;;;34.00;18.37;;;;;;;7.29;100.00;101746.92;3351044;86;99236;-86
2021/12/16 02:51:27;;;;;;;32.53;17.53;;;;;;;7.33;100.00;101750.63;3320485;85;100047;-85
2021/12/16 02:56:29;;;;;;;37.67;19.03;;;;;;;7.34;100.00;101752.23;3344638;85;99184;-86
2021/12/16 03:01:42;;;;;;;38.03;18.53;;;;;;;7.35;100.00;101749.73;3362678;85;99387;-86
2021/12/16 03:06:47;;;;;;;36.00;18.33;;;;;;;7.37;100.00;101749.41;3355732;85;99325;-87
2021/12/16 03:17:35;;;;;;;37.47;19.37;;;;;;;7.39;100.00;101748.52;3353492;85;99055;-88
2021/12/16 03:22:25;;;;;;;35.33;18.17;;;;;;;7.37;100.00;101747.47;3345763;86;98781;-87
2021/12/16 03:27:59;;;;;;;34.87;17.47;;;;;;;7.38;100.00;101753.77;3364762;85;98958;-87
2021/12/16 03:38:05;;;;;;;34.33;17.60;;;;;;;7.39;100.00;101759.47;3344775;85;99053;-87
2021/12/16 03:43:11;;;;;;;35.93;17.83;;;;;;;7.37;100.00;101755.68;3362240;85;99473;-87
2021/12/16 03:48:20;;;;;;;38.95;17.35;;;;;;;7.38;100.00;101755.95;3355017;86;101236;-87
2021/12/16 03:53:21;;;;;;;39.47;18.53;;;;;;;7.38;100.00;101753.21;3350562;84;99263;-86
2021/12/16 03:58:22;;;;;;;34.70;17.10;;;;;;;7.37;100.00;101749.41;3346539;86;98767;-87
2021/12/16 04:03:24;;;;;;;31.07;15.65;;;;;;;7.37;100.00;101748.84;3332118;86;99459;-85
2021/12/16 04:08:24;;;;;;;32.93;16.73;;;;;;;7.37;100.00;101745.31;3336028;86;98971;-88
2021/12/16 04:13:25;;;;;;;34.23;16.87;;;;;;;7.38;100.00;101748.28;3333332;86;99126;-89
2021/12/16 04:18:26;;;;;;;34.67;16.20;;;;;;;7.40;100.00;101746.02;3361469;85;99143;-88
2021/12/16 04:23:27;;;;;;;29.60;16.07;;;;;;;7.39;100.00;101742.48;3350372;85;99010;-88
2021/12/16 04:28:30;;;;;;;33.00;15.03;;;;;;;7.42;100.00;101747.30;3325442;86;99141;-88
2021/12/16 04:33:31;;;;;;;31.77;15.67;;;;;;;7.43;100.00;101751.67;3338546;86;98993;-89
2021/12/16 04:38:32;;;;;;;30.23;15.17;;;;;;;7.44;100.00;101746.98;3388304;84;99236;-89
2021/12/16 04:43:39;;;;;;;32.53;15.10;;;;;;;7.44;100.00;101750.54;3400037;85;98980;-90
2021/12/16 04:48:40;;;;;;;31.12;15.60;;;;;;;7.48;100.00;101760.28;3362504;85;99049;-90
2021/12/16 04:53:43;;;;;;;26.53;13.93;;;;;;;7.49;100.00;101752.30;3357239;85;98304;-89
2021/12/16 04:58:49;;;;;;;25.25;13.72;;;;;;;7.51;100.00;101748.66;3325460;85;98864;-88
2021/12/16 05:03:51;;;;;;;26.87;12.87;;;;;;;7.52;100.00;101758.52;3371177;85;98001;-88
2021/12/16 05:08:52;;;;;;;28.90;14.30;;;;;;;7.51;100.00;101759.62;3321906;85;99202;-89
2021/12/16 05:13:53;;;;;;;27.23;13.77;;;;;;;7.52;100.00;101746.97;3404746;84;99339;-88
2021/12/16 05:18:56;;;;;;;26.73;13.70;;;;;;;7.55;100.00;101751.00;3336062;86;99376;-88
2021/12/16 05:24:25;;;;;;;28.50;13.47;;;;;;;7.56;100.00;101756.71;3363055;84;99125;-89
2021/12/16 05:29:17;;;;;;;27.70;12.90;;;;;;;7.54;100.00;101754.88;3385024;84;99040;-89
2021/12/16 05:34:20;;;;;;;28.07;13.33;;;;;;;7.59;100.00;101762.93;3367901;85;33315;-89
2021/12/16 05:39:22;;;;;;;34.35;14.73;;;;;;;7.59;100.00;101767.83;3358880;85;99112;-88
2021/12/16 05:44:23;;;;;;;22.00;11.90;;;;;;;7.59;100.00;101760.19;3369983;84;98901;-89
2021/12/16 05:49:23;;;;;;;27.27;13.58;;;;;;;7.59;100.00;101760.97;3324193;86;99190;-89
2021/12/16 05:54:24;;;;;;;27.20;13.53;;;;;;;7.61;100.00;101759.28;3335136;84;99100;-88
2021/12/16 05:59:26;;;;;;;25.57;12.93;;;;;;;7.63;100.00;101750.98;3306801;86;99246;-89
2021/12/16 06:04:27;;;;;;;25.47;13.80;;;;;;;7.64;100.00;101760.02;3313026;85;33270;-89
2021/12/16 06:09:27;;;;;;;23.77;12.67;;;;;;;7.65;100.00;101768.48;3337729;85;99281;-89
2021/12/16 06:30:21;;;;;;;28.95;16.10;;;;;;;7.71;100.00;101779.50;3306361;85;99435;-88
2021/12/16 06:35:23;;;;;;;;;;;;;;;7.68;100.00;101785.07;3314524;84;99471;-88
2021/12/16 06:40:25;;;;;;;38.30;21.30;;;;;;;7.70;100.00;101786.13;3335357;85;84813;-89
2021/12/16 06:45:30;;;;;;;33.03;16.43;;;;;;;7.70;100.00;101783.38;3321620;86;99943;-89
2021/12/16 06:55:42;;;;;;;26.17;12.97;;;;;;;7.72;100.00;101790.70;3308925;85;98304;-89
2021/12/16 07:00:46;;;;;;;24.33;13.53;;;;;;;7.73;100.00;101797.78;3329835;85;99221;-96
2021/12/16 07:05:46;;;;;;;26.42;14.73;;;;;;;7.75;100.00;101806.51;3339459;84;99478;-95
2021/12/16 07:10:52;;;;;;;26.63;13.33;;;;;;;7.75;100.00;101806.51;3353804;85;98792;-94
2021/12/16 07:15:54;;;;;;;34.25;16.20;;;;;;;7.75;100.00;101818.25;3326859;85;99112;-96
2021/12/16 07:20:55;;;;;;;37.00;16.40;;;;;;;7.77;100.00;101813.28;3324183;85;99430;-94
2021/12/16 07:25:58;;;;;;;41.87;16.60;;;;;;;7.79;100.00;101816.48;3329585;86;99008;-90
2021/12/16 07:30:59;;;;;;;31.13;14.60;;;;;;;7.79;100.00;101804.16;3345290;85;99420;-93
2021/12/16 07:36:02;;;;;;;39.00;16.93;;;;;;;7.82;100.00;101819.14;3311425;86;99451;-94
2021/12/16 07:41:03;;;;;;;37.17;16.07;;;;;;;7.81;100.00;101836.14;3383730;84;99020;-95
2021/12/16 07:46:04;;;;;;;39.17;15.33;;;;;;;7.82;100.00;101850.11;3339712;86;33258;-94
2021/12/16 07:51:07;;;;;;;27.30;14.10;;;;;;;7.83;100.00;101864.61;3327079;84;99269;-95
2021/12/16 07:56:09;;;;;;;26.77;13.73;;;;;;;7.83;100.00;101855.83;3328405;86;98248;-94
2021/12/16 08:01:10;;;;;;;24.93;12.47;;;;;;;7.84;100.00;101875.25;3318328;86;98849;-92
2021/12/16 08:06:21;;;;;;;25.93;13.63;;;;;;;7.85;100.00;101870.00;3325742;86;99053;-93
2021/12/16 08:11:20;;;;;;;30.30;15.75;;;;;;;7.86;100.00;101871.61;3338275;86;99089;-95
2021/12/16 08:16:22;;;;;;;28.33;14.70;;;;;;;7.88;100.00;101872.11;3341640;85;33203;-96
2021/12/16 08:21:28;;;;;;;25.17;12.93;;;;;;;7.89;100.00;101879.75;3341615;86;98788;-96
2021/12/16 08:26:30;;;;;;;24.05;11.40;;;;;;;7.91;100.00;101892.59;3352049;86;98240;-96
2021/12/16 08:31:34;;;;;;;24.10;11.90;;;;;;;7.92;100.00;101891.45;3321276;87;98420;-94
2021/12/16 08:36:36;;;;;;;26.02;12.43;;;;;;;7.94;100.00;101894.11;3337043;86;98674;-96
2021/12/16 08:41:57;;;;;;;;;;;;;;;;;;;;;
2021/12/16 08:46:56;;;;;;;27.47;12.00;;;;;;;7.97;100.00;101892.08;3285997;86;26891;-93
2021/12/16 08:52:05;;;;;;;24.72;12.60;;;;;;;7.97;100.00;101898.94;3310672;86;99198;-96
2021/12/16 08:57:07;;;;;;;24.13;11.20;;;;;;;8.01;100.00;101901.86;3323614;86;98411;-95
2021/12/16 09:02:08;;;;;;;24.37;12.03;;;;;;;8.03;100.00;101918.23;3342554;85;99033;-95
2021/12/16 09:07:11;;;;;;;23.40;11.48;;;;;;;8.05;100.00;101925.55;3317691;85;99477;-93
2021/12/16 09:17:42;;;;;;;21.63;11.47;;;;;;;8.07;100.00;101934.25;3348329;85;98469;-96
2021/12/16 09:22:45;;;;;;;;;;;;;;;8.10;100.00;101919.91;3324490;86;98478;-96
2021/12/16 09:28:04;;;;;;;19.87;10.20;;;;;;;8.12;100.00;101927.81;3326514;85;84735;-94
2021/12/16 09:33:14;;;;;;;24.70;10.80;;;;;;;8.13;100.00;101912.38;3371746;85;99100;-95
2021/12/16 09:38:20;;;;;;;22.37;10.70;;;;;;;8.16;100.00;101905.45;3337070;83;99198;-95
2021/12/16 09:43:26;;;;;;;20.55;10.40;;;;;;;8.20;100.00;101899.59;3386149;85;99139;-94
2021/12/16 09:48:27;;;;;;;19.77;10.10;;;;;;;8.21;100.00;101913.55;3324723;85;99502;-94
2021/12/16 09:53:28;;;;;;;16.83;8.97;;;;;;;8.25;100.00;101907.66;3332737;86;99129;-94
2021/12/16 10:04:45;;;;;;;20.53;9.60;;;;;;;8.32;100.00;101897.80;3340584;85;33433;-91
2021/12/16 10:09:51;;;;;;;19.35;9.15;;;;;;;8.34;100.00;101901.59;3343556;85;99382;-93
2021/12/16 10:20:09;;;;;;;16.90;7.72;;;;;;;8.36;100.00;101920.72;3360619;85;99276;-93
2021/12/16 10:25:30;;;;;;;15.83;8.17;;;;;;;8.36;100.00;101921.27;3364621;84;98956;-93
2021/12/16 10:31:04;;;;;;;15.40;7.93;;;;;;;8.32;100.00;101938.13;3366217;85;99327;-94
2021/12/16 10:36:34;;;;;;;16.07;7.97;;;;;;;8.31;100.00;101936.52;3398781;83;98918;-93
2021/12/16 10:41:58;;;;;;;15.70;7.17;;;;;;;8.30;100.00;101932.96;3423614;83;98708;-96
2021/12/16 10:47:13;;;;;;;15.00;7.13;;;;;;;8.30;100.00;101925.31;3449216;82;97957;-96
2021/12/16 10:52:27;;;;;;;16.62;7.58;;;;;;;8.32;100.00;101927.16;3338585;85;98873;-93
2021/12/16 10:57:31;;;;;;;15.87;7.60;;;;;;;8.32;100.00;101912.89;3339518;85;99613;-93
2021/12/16 11:02:36;;;;;;;13.95;6.92;;;;;;;8.32;100.00;101900.55;3385896;83;99232;-91
2021/12/16 11:07:43;;;;;;;10.43;5.12;;;;;;;8.35;100.00;101899.88;3413504;83;99261;-92
2021/12/16 11:13:09;;;;;;;8.90;4.25;;;;;;;8.39;100.00;101895.94;3434030;83;100332;-93
2021/12/16 11:18:28;;;;;;;9.80;4.23;;;;;;;8.43;100.00;101899.06;3444414;82;98567;-90
2021/12/16 11:23:34;;;;;;;15.33;6.20;;;;;;;8.51;100.00;101897.44;3421317;83;33328;-91
2021/12/16 11:28:42;;;;;;;11.90;5.67;;;;;;;8.56;100.00;101889.81;3393147;82;99043;-92
2021/12/16 11:33:55;;;;;;;11.53;5.80;;;;;;;8.61;100.00;101890.22;3435215;83;98741;-91
2021/12/16 11:39:14;;;;;;;10.75;5.40;;;;;;;8.64;100.00;101900.52;3401465;83;99624;-93
2021/12/16 11:44:29;;;;;;;11.20;5.13;;;;;;;8.64;100.00;101903.27;3434076;83;99378;-93
2021/12/16 11:50:04;;;;;;;8.70;4.00;;;;;;;8.66;100.00;101914.72;3404701;83;99596;-96
2021/12/16 11:55:22;;;;;;;12.83;6.47;;;;;;;8.68;100.00;101923.44;3276758;87;100009;-95
2021/12/16 12:00:48;;;;;;;9.80;4.22;;;;;;;8.72;100.00;101921.66;3381841;81;99277;-94
2021/12/16 12:05:46;;;;;;;9.90;4.13;;;;;;;8.72;100.00;101908.72;3394089;83;26108;-95
2021/12/16 12:11:10;;;;;;;8.87;3.50;;;;;;;8.63;100.00;101920.33;3374808;83;98438;-95
2021/12/16 12:17:04;;;;;;;;;;;;;;;;;;;;;
2021/12/16 12:33:38;;;;;;;13.28;7.10;;;;;;;8.31;100.00;101918.14;2975162;94;99569;-94
2021/12/16 12:44:07;;;;;;;11.70;4.95;;;;;;;8.30;100.00;101900.05;2785767;100;98969;-91
2021/12/16 12:49:13;;;;;;;18.48;7.75;;;;;;;8.28;100.00;101908.39;3099431;89;99295;-92
2021/12/16 12:54:23;;;;;;;;;;;;;;;8.27;100.00;101900.72;3247087;88;98797;-93
2021/12/16 12:59:41;;;;;;;13.40;6.63;;;;;;;8.22;100.00;101892.66;3228202;88;85468;-93
2021/12/16 13:04:54;;;;;;;16.55;6.05;;;;;;;8.15;100.00;101898.36;3360974;83;99175;-92
2021/12/16 13:09:55;;;;;;;11.75;4.58;;;;;;;8.08;100.00;101904.33;3383942;83;99221;-89
2021/12/16 13:15:08;;;;;;;8.60;3.73;;;;;;;8.01;100.00;101912.24;3415760;84;98840;-90
2021/12/16 13:30:57;;;;;;;9.58;3.25;;;;;;;7.76;100.00;101894.44;3392150;84;98802;-89
2021/12/16 13:36:17;;;;;;;10.15;3.15;;;;;;;7.65;100.00;101900.00;3429828;83;98590;-90
2021/12/16 13:41:19;;;;;;;8.90;2.92;;;;;;;7.55;100.00;101905.79;3372294;85;99050;-93
2021/12/16 14:07:56;;;;;;;7.67;3.37;;;;;;;7.17;100.00;101983.61;3419198;83;34163;-92
2021/12/16 14:24:59;;;;;;;14.43;6.23;;;;;;;7.07;100.00;102000.86;3422331;83;99141;-90
2021/12/16 14:35:07;;;;;;;16.17;6.70;;;;;;;6.97;100.00;102010.71;3355080;83;98891;-90
2021/12/16 14:40:23;;;;;;;26.25;10.85;;;;;;;6.88;100.00;101986.03;3426824;83;99106;-93
2021/12/16 14:45:42;;;;;;;18.57;8.63;;;;;;;6.80;100.00;101978.61;3417883;83;99450;-91
2021/12/16 14:51:12;;;;;;;19.00;8.27;;;;;;;6.70;100.00;101976.13;3396306;84;98987;-91
2021/12/16 14:56:31;;;;;;;18.77;8.93;;;;;;;6.61;100.00;101995.78;3431167;82;98898;-89
2021/12/16 15:01:37;;;;;;;24.97;9.83;;;;;;;6.52;100.00;101988.64;3421964;83;98801;-88
2021/12/16 15:06:56;;;;;;;29.87;14.45;;;;;;;6.42;100.00;101991.08;3408325;82;98686;-88
2021/12/16 15:12:03;;;;;;;36.23;18.87;;;;;;;6.34;100.00;101992.39;3373740;83;99756;-88
2021/12/16 15:43:16;;;;;;;19.87;8.00;;;;;;;5.83;100.00;102026.13;3389758;84;33355;-96
2021/12/16 15:48:23;;;;;;;21.83;8.87;;;;;;;5.74;100.00;102008.80;3365577;84;99335;-91
2021/12/16 15:53:36;;;;;;;17.20;6.67;;;;;;;5.68;100.00;102019.58;3370503;84;98785;-95
2021/12/16 15:58:49;;;;;;;15.95;6.85;;;;;;;5.60;100.00;102025.75;3386888;84;98921;-88
2021/12/16 16:03:50;;;;;;;20.50;9.23;;;;;;;5.52;100.00;102019.65;3408483;83;98822;-90
2021/12/16 16:08:59;;;;;;;15.57;7.83;;;;;;;5.44;100.00;102025.80;3408592;83;99726;-91
2021/12/16 16:14:04;;;;;;;22.10;12.33;;;;;;;5.37;100.00;102032.23;3432289;82;99265;-89
2021/12/16 16:19:08;;;;;;;20.90;11.03;;;;;;;5.32;100.00;102036.43;3449599;83;99151;-90
2021/12/16 16:24:20;;;;;;;16.33;7.70;;;;;;;5.25;100.00;102047.73;3423202;83;99251;-91
2021/12/16 16:29:27;;;;;;;17.00;9.00;;;;;;;5.20;100.00;102046.50;3429184;83;99117;-90
2021/12/16 16:34:32;;;;;;;23.47;10.10;;;;;;;5.12;100.00;102017.16;3444518;82;99325;-90
2021/12/16 16:39:38;;;;;;;20.10;8.48;;;;;;;5.07;100.00;102036.93;3425294;83;99190;-91
2021/12/16 16:44:46;;;;;;;17.65;6.08;;;;;;;5.00;100.00;102020.95;3400321;83;98867;-93
2021/12/16 16:49:53;;;;;;;15.33;6.97;;;;;;;4.96;100.00;102029.47;3419991;83;98621;-90
2021/12/16 16:55:20;;;;;;;17.40;7.37;;;;;;;4.90;100.00;102035.30;3399241;83;97783;-90
2021/12/16 17:00:27;;;;;;;;;;;;;;;4.86;100.00;102040.56;3423520;83;99069;-90
2021/12/16 17:05:35;;;;;;;19.95;7.42;;;;;;;4.81;100.00;102042.58;3449687;82;84601;-89
2021/12/16 17:11:01;;;;;;;36.73;15.80;;;;;;;4.74;100.00;102050.35;3406552;84;99495;-90
2021/12/16 17:21:22;;;;;;;28.73;10.43;;;;;;;4.68;100.00;102065.15;3423815;83;98966;-91
2021/12/16 17:26:33;;;;;;;23.07;9.03;;;;;;;4.65;100.00;102076.09;3452406;83;99029;-91
2021/12/16 17:31:58;;;;;;;17.37;6.47;;;;;;;4.62;100.00;102082.16;3451651;81;98336;-91
2021/12/16 17:37:17;;;;;;;19.60;8.17;;;;;;;4.60;100.00;102080.84;3427318;82;98823;-92
2021/12/16 17:42:32;;;;;;;19.40;8.33;;;;;;;4.59;100.00;102083.31;3427168;83;99268;-92
2021/12/16 17:47:38;;;;;;;15.77;6.57;;;;;;;4.58;100.00;102082.49;3438213;82;98948;-91
2021/12/16 17:52:39;;;;;;;15.50;5.93;;;;;;;4.60;100.00;102089.84;3403178;83;99266;-90
2021/12/16 17:57:45;;;;;;;19.20;6.37;;;;;;;4.64;100.00;102101.75;3443854;83;99329;-90
2021/12/16 18:02:47;;;;;;;11.95;4.10;;;;;;;4.67;100.00;102085.36;3420000;83;98887;-90
2021/12/16 18:07:50;;;;;;;17.67;5.90;;;;;;;4.74;100.00;102096.14;3429646;82;98767;-89
2021/12/16 18:12:52;;;;;;;20.00;5.20;;;;;;;4.79;100.00;102078.88;3426439;82;99151;-89
2021/12/16 18:17:58;;;;;;;16.87;4.93;;;;;;;4.84;100.00;102078.80;3431804;83;99012;-89
2021/12/16 18:23:04;;;;;;;16.90;4.42;;;;;;;4.90;100.00;102093.42;3402505;83;98132;-90
2021/12/16 18:28:29;;;;;;;30.43;7.45;;;;;;;4.95;100.00;102094.70;3403947;83;99205;-90
2021/12/16 18:33:42;;;;;;;16.20;5.53;;;;;;;5.01;100.00;102085.31;3431208;83;99275;-92
2021/12/16 18:38:57;;;;;;;21.87;5.43;;;;;;;5.07;100.00;102084.11;3438979;83;99550;-91
2021/12/16 18:43:58;;;;;;;20.97;5.43;;;;;;;5.13;100.00;102100.64;3428586;83;33170;-91
2021/12/16 18:49:07;;;;;;;17.63;5.10;;;;;;;5.19;100.00;102103.53;3405804;83;98906;-91
2021/12/16 18:59:24;;;;;;;16.05;5.80;;;;;;;5.28;100.00;102119.48;3411076;83;99266;-90
2021/12/16 19:04:31;;;;;;;19.17;5.07;;;;;;;5.31;100.00;102124.36;3437712;83;98942;-89
2021/12/16 19:09:37;;;;;;;19.00;6.97;;;;;;;5.36;100.00;102134.37;3405746;83;99253;-89
2021/12/16 19:14:46;;;;;;;28.17;6.70;;;;;;;5.39;100.00;102132.39;3408186;83;100077;-90
2021/12/16 19:19:51;;;;;;;24.17;7.87;;;;;;;5.41;100.00;102139.16;3435676;83;98651;-90
2021/12/16 19:24:53;;;;;;;33.10;7.13;;;;;;;5.43;100.00;102134.23;3428403;82;99287;-89
2021/12/16 19:29:59;;;;;;;18.95;6.33;;;;;;;5.45;100.00;102136.67;3420262;83;99249;-90
2021/12/16 19:35:08;;;;;;;23.53;8.30;;;;;;;5.46;100.00;102145.91;3431814;83;98866;-89
2021/12/16 19:40:22;;;;;;;19.02;5.75;;;;;;;5.52;100.00;102157.56;3407790;83;98880;-90
2021/12/16 19:45:28;;;;;;;22.73;6.47;;;;;;;5.51;100.00;102149.91;3414451;83;98942;-90
2021/12/16 19:50:34;;;;;;;19.85;6.12;;;;;;;5.54;100.00;102149.86;3429117;83;99206;-91
2021/12/16 19:55:37;;;;;;;29.00;8.57;;;;;;;5.54;100.00;102156.69;3404059;83;33266;-90
2021/12/16 20:00:44;;;;;;;30.15;8.35;;;;;;;5.55;100.00;102160.49;3423404;83;99122;-89
2021/12/16 20:05:48;;;;;;;22.55;8.33;;;;;;;5.56;100.00;102164.05;3435084;83;98733;-89
2021/12/16 20:11:00;;;;;;;21.93;8.37;;;;;;;5.57;100.00;102157.47;3424339;83;98980;-91
2021/12/16 20:16:09;;;;;;;21.27;6.13;;;;;;;5.58;100.00;102177.66;3404354;84;98908;-90
2021/12/16 20:21:18;;;;;;;24.50;7.93;;;;;;;5.58;100.00;102184.48;3432587;81;98926;-90
2021/12/16 20:26:29;;;;;;;38.93;15.37;;;;;;;5.56;100.00;102172.23;3390416;83;98908;-92
2021/12/16 20:31:33;;;;;;;34.43;11.30;;;;;;;5.58;100.00;102175.47;3425237;82;98701;-91
2021/12/16 20:36:38;;;;;;;28.25;11.43;;;;;;;5.55;100.00;102165.95;3433275;83;98984;-91
2021/12/16 20:41:45;;;;;;;37.07;10.13;;;;;;;5.55;100.00;102177.42;3426864;82;99082;-94
2021/12/16 20:46:51;;;;;;;20.35;7.42;;;;;;;5.52;100.00;102176.67;3407184;83;99464;-93
2021/12/16 20:51:57;;;;;;;20.50;8.23;;;;;;;5.54;100.00;102173.08;3431554;83;98861;-92
2021/12/16 20:56:58;;;;;;;22.40;7.37;;;;;;;5.54;100.00;102172.53;3402679;84;98984;-91
2021/12/16 21:02:11;;;;;;;24.37;8.50;;;;;;;5.55;100.00;102165.95;3438647;83;99077;-92
2021/12/16 21:07:14;;;;;;;26.97;8.17;;;;;;;5.53;100.00;102170.92;3431126;83;98562;-93
2021/12/16 21:12:18;;;;;;;21.15;7.67;;;;;;;5.51;100.00;102152.64;3388911;83;98824;-93
2021/12/16 21:17:20;;;;;;;20.83;6.57;;;;;;;5.52;100.00;102164.39;3341776;85;99302;-94
2021/12/16 21:22:24;;;;;;;15.50;5.42;;;;;;;5.49;100.00;102160.88;3354920;84;98909;-92
2021/12/16 21:27:27;;;;;;;24.40;6.77;;;;;;;5.46;100.00;102171.84;3377600;85;98925;-93
2021/12/16 21:32:28;;;;;;;26.52;5.40;;;;;;;5.48;100.00;102166.09;3378404;84;100814;-95
2021/12/16 21:37:32;;;;;;;22.50;6.73;;;;;;;5.38;100.00;102162.17;3312976;86;33333;-93
2021/12/16 21:42:37;;;;;;;24.57;4.97;;;;;;;5.47;100.00;102188.51;3257083;87;98702;-93
2021/12/16 21:47:37;;;;;;;22.17;5.93;;;;;;;5.45;100.00;102172.96;3273523;87;99036;-93
2021/12/16 21:52:38;;;;;;;20.33;6.13;;;;;;;5.48;100.00;102168.82;3287931;84;98910;-95
2021/12/16 21:57:40;;;;;;;25.87;5.97;;;;;;;5.45;100.00;102157.94;3257884;87;98885;-94
2021/12/16 22:02:42;;;;;;;19.53;4.43;;;;;;;5.44;100.00;102160.42;3281159;87;99524;-91
2021/12/16 22:07:49;;;;;;;19.07;5.17;;;;;;;5.43;100.00;102162.08;3313514;85;99023;-92
2021/12/16 22:12:50;;;;;;;;;;;;;;;5.41;100.00;102157.48;3245591;87;97985;-90
2021/12/16 22:17:54;;;;;;;20.70;5.77;;;;;;;5.39;100.00;102162.42;3298563;86;84953;-90
2021/12/16 22:22:58;;;;;;;23.07;5.77;;;;;;;5.37;100.00;102157.83;3262287;87;98135;-89
2021/12/16 22:27:59;;;;;;;22.13;4.90;;;;;;;5.36;100.00;102157.58;3329136;85;99310;-90
2021/12/16 22:33:01;;;;;;;15.10;4.53;;;;;;;5.31;100.00;102165.31;3326047;84;99290;-90
2021/12/16 22:38:05;;;;;;;30.05;5.70;;;;;;;5.30;100.00;102147.86;3305776;86;98981;-90
2021/12/16 22:43:09;;;;;;;20.80;5.13;;;;;;;5.28;100.00;102150.06;3384984;84;98678;-90
2021/12/16 22:48:10;;;;;;;21.67;4.67;;;;;;;5.26;100.00;102142.73;3388182;85;98871;-90
2021/12/16 22:53:13;;;;;;;24.03;5.83;;;;;;;5.25;100.00;102143.28;3364649;85;98002;-91
2021/12/16 22:58:19;;;;;;;26.77;6.17;;;;;;;5.24;100.00;102147.70;3392066;84;98893;-90
2021/12/16 23:03:22;;;;;;;21.20;5.15;;;;;;;5.20;100.00;102148.86;3387961;84;98883;-90
2021/12/16 23:08:23;;;;;;;19.60;6.10;;;;;;;5.20;100.00;102137.11;3392039;84;99164;-91
2021/12/16 23:13:28;;;;;;;19.77;5.57;;;;;;;5.10;100.00;102127.73;3394217;84;33457;-91
2021/12/16 23:23:30;;;;;;;21.53;4.87;;;;;;;5.13;100.00;102140.22;3357365;85;98035;-90
2021/12/16 23:28:32;;;;;;;19.73;5.23;;;;;;;5.10;100.00;102158.58;3309726;87;99508;-90
2021/12/16 23:33:33;;;;;;;23.23;5.90;;;;;;;5.09;100.00;102157.50;3396207;84;99615;-89
2021/12/16 23:44:42;;;;;;;19.37;5.03;;;;;;;5.08;100.00;102163.50;3384993;85;34026;-89
2021/12/16 23:54:23;;;;;;;16.93;4.57;;;;;;;5.11;100.00;102178.47;3422342;83;99365;-90
2021/12/16 23:59:15;;;;;;;17.40;4.90;;;;;;;5.09;100.00;102188.34;3433105;82;99258;-90
